sensor_id;sensor_type;location;lat;lon;timestamp;P1;durP1;ratioP1;P2;durP2;ratioP2
41925;SDS011;27615;51.826;5.692;2023-03-31T00:01:35;12.02;;;4.18;;
41925;SDS011;27615;51.826;5.692;2023-03-31T00:04:05;7.50;;;2.50;;
41925;SDS011;27615;51.826;5.692;2023-03-31T00:06:33;11.77;;;2.58;;
41925;SDS011;27615;51.826;5.692;2023-03-31T00:09:05;15.57;;;4.75;;
41925;SDS011;27615;51.826;5.692;2023-03-31T00:11:32;18.05;;;3.88;;
41925;SDS011;27615;51.826;5.692;2023-03-31T00:13:58;12.52;;;3.30;;
41925;SDS011;27615;51.826;5.692;2023-03-31T00:16:23;14.20;;;3.28;;
41925;SDS011;27615;51.826;5.692;2023-03-31T00:18:49;13.57;;;2.88;;
41925;SDS011;27615;51.826;5.692;2023-03-31T00:21:17;14.75;;;3.08;;
41925;SDS011;27615;51.826;5.692;2023-03-31T00:23:50;11.50;;;2.35;;
41925;SDS011;27615;51.826;5.692;2023-03-31T00:26:17;11.20;;;2.45;;
41925;SDS011;27615;51.826;5.692;2023-03-31T00:28:43;8.48;;;2.78;;
41925;SDS011;27615;51.826;5.692;2023-03-31T00:31:08;10.40;;;2.95;;
41925;SDS011;27615;51.826;5.692;2023-03-31T00:33:34;8.20;;;1.98;;
41925;SDS011;27615;51.826;5.692;2023-03-31T00:36:00;11.07;;;2.63;;
41925;SDS011;27615;51.826;5.692;2023-03-31T00:38:26;10.65;;;3.47;;
41925;SDS011;27615;51.826;5.692;2023-03-31T00:40:53;10.63;;;2.53;;
41925;SDS011;27615;51.826;5.692;2023-03-31T00:43:23;10.65;;;2.55;;
41925;SDS011;27615;51.826;5.692;2023-03-31T00:45:56;8.95;;;2.10;;
41925;SDS011;27615;51.826;5.692;2023-03-31T00:48:28;7.38;;;1.65;;
41925;SDS011;27615;51.826;5.692;2023-03-31T00:50:54;9.30;;;2.28;;
41925;SDS011;27615;51.826;5.692;2023-03-31T00:53:23;7.22;;;1.73;;
41925;SDS011;27615;51.826;5.692;2023-03-31T00:55:53;10.27;;;2.45;;
41925;SDS011;27615;51.826;5.692;2023-03-31T00:58:21;12.35;;;2.10;;
41925;SDS011;27615;51.826;5.692;2023-03-31T01:00:52;11.15;;;2.47;;
41925;SDS011;27615;51.826;5.692;2023-03-31T01:03:20;6.72;;;1.70;;
41925;SDS011;27615;51.826;5.692;2023-03-31T01:05:50;6.22;;;1.38;;
41925;SDS011;27615;51.826;5.692;2023-03-31T01:08:20;7.57;;;2.00;;
41925;SDS011;27615;51.826;5.692;2023-03-31T01:10:50;9.07;;;2.38;;
41925;SDS011;27615;51.826;5.692;2023-03-31T01:13:21;7.00;;;1.58;;
41925;SDS011;27615;51.826;5.692;2023-03-31T01:15:48;12.90;;;2.30;;
41925;SDS011;27615;51.826;5.692;2023-03-31T01:18:14;8.60;;;2.22;;
41925;SDS011;27615;51.826;5.692;2023-03-31T01:23:47;12.02;;;4.00;;
41925;SDS011;27615;51.826;5.692;2023-03-31T01:26:30;8.48;;;2.20;;
41925;SDS011;27615;51.826;5.692;2023-03-31T01:40:13;10.57;;;2.35;;
41925;SDS011;27615;51.826;5.692;2023-03-31T01:43:13;7.20;;;2.60;;
41925;SDS011;27615;51.826;5.692;2023-03-31T01:48:32;9.43;;;1.88;;
41925;SDS011;27615;51.826;5.692;2023-03-31T01:54:17;9.43;;;1.73;;
41925;SDS011;27615;51.826;5.692;2023-03-31T01:56:59;10.57;;;2.00;;
41925;SDS011;27615;51.826;5.692;2023-03-31T01:59:33;12.57;;;2.15;;
41925;SDS011;27615;51.826;5.692;2023-03-31T02:02:08;9.35;;;2.25;;
41925;SDS011;27615;51.826;5.692;2023-03-31T02:04:41;11.52;;;2.83;;
41925;SDS011;27615;51.826;5.692;2023-03-31T02:07:12;6.32;;;1.55;;
41925;SDS011;27615;51.826;5.692;2023-03-31T02:09:42;8.60;;;1.80;;
41925;SDS011;27615;51.826;5.692;2023-03-31T02:12:11;10.07;;;1.73;;
41925;SDS011;27615;51.826;5.692;2023-03-31T02:14:39;11.50;;;2.17;;
41925;SDS011;27615;51.826;5.692;2023-03-31T02:17:10;9.45;;;2.13;;
41925;SDS011;27615;51.826;5.692;2023-03-31T02:19:42;8.40;;;1.60;;
41925;SDS011;27615;51.826;5.692;2023-03-31T02:22:09;11.30;;;1.90;;
41925;SDS011;27615;51.826;5.692;2023-03-31T02:24:36;14.27;;;2.10;;
41925;SDS011;27615;51.826;5.692;2023-03-31T02:29:57;8.65;;;1.95;;
41925;SDS011;27615;51.826;5.692;2023-03-31T02:32:26;13.98;;;1.70;;
41925;SDS011;27615;51.826;5.692;2023-03-31T02:34:54;10.27;;;2.20;;
41925;SDS011;27615;51.826;5.692;2023-03-31T02:37:20;10.35;;;2.35;;
41925;SDS011;27615;51.826;5.692;2023-03-31T02:39:46;14.77;;;4.45;;
41925;SDS011;27615;51.826;5.692;2023-03-31T02:42:14;11.95;;;2.00;;
41925;SDS011;27615;51.826;5.692;2023-03-31T02:44:40;10.23;;;1.42;;
41925;SDS011;27615;51.826;5.692;2023-03-31T02:47:07;6.72;;;2.00;;
41925;SDS011;27615;51.826;5.692;2023-03-31T02:49:36;8.85;;;1.52;;
41925;SDS011;27615;51.826;5.692;2023-03-31T03:02:24;7.07;;;1.48;;
41925;SDS011;27615;51.826;5.692;2023-03-31T03:15:54;7.78;;;1.52;;
41925;SDS011;27615;51.826;5.692;2023-03-31T03:18:24;6.07;;;1.33;;
41925;SDS011;27615;51.826;5.692;2023-03-31T03:20:50;5.47;;;1.65;;
41925;SDS011;27615;51.826;5.692;2023-03-31T03:23:16;9.95;;;1.55;;
41925;SDS011;27615;51.826;5.692;2023-03-31T03:25:43;9.77;;;2.25;;
41925;SDS011;27615;51.826;5.692;2023-03-31T03:28:08;6.45;;;1.45;;
41925;SDS011;27615;51.826;5.692;2023-03-31T03:30:34;10.30;;;2.10;;
41925;SDS011;27615;51.826;5.692;2023-03-31T03:33:00;6.93;;;1.48;;
41925;SDS011;27615;51.826;5.692;2023-03-31T03:35:27;7.95;;;1.73;;
41925;SDS011;27615;51.826;5.692;2023-03-31T03:37:53;10.82;;;2.50;;
41925;SDS011;27615;51.826;5.692;2023-03-31T03:40:18;6.38;;;1.90;;
41925;SDS011;27615;51.826;5.692;2023-03-31T03:42:44;8.43;;;1.60;;
41925;SDS011;27615;51.826;5.692;2023-03-31T03:45:09;7.70;;;1.73;;
41925;SDS011;27615;51.826;5.692;2023-03-31T03:47:35;9.90;;;2.20;;
41925;SDS011;27615;51.826;5.692;2023-03-31T03:50:01;10.23;;;2.80;;
41925;SDS011;27615;51.826;5.692;2023-03-31T03:52:28;12.60;;;2.60;;
41925;SDS011;27615;51.826;5.692;2023-03-31T03:54:53;12.30;;;2.67;;
41925;SDS011;27615;51.826;5.692;2023-03-31T03:57:19;15.00;;;2.53;;
41925;SDS011;27615;51.826;5.692;2023-03-31T03:59:45;14.30;;;3.08;;
41925;SDS011;27615;51.826;5.692;2023-03-31T04:02:10;15.07;;;3.67;;
41925;SDS011;27615;51.826;5.692;2023-03-31T04:04:36;12.48;;;2.45;;
41925;SDS011;27615;51.826;5.692;2023-03-31T04:07:02;14.30;;;2.63;;
41925;SDS011;27615;51.826;5.692;2023-03-31T04:09:27;12.85;;;2.75;;
41925;SDS011;27615;51.826;5.692;2023-03-31T04:11:53;16.27;;;3.35;;
41925;SDS011;27615;51.826;5.692;2023-03-31T04:14:18;13.88;;;2.85;;
41925;SDS011;27615;51.826;5.692;2023-03-31T04:16:44;13.13;;;2.38;;
41925;SDS011;27615;51.826;5.692;2023-03-31T04:19:11;15.10;;;2.92;;
41925;SDS011;27615;51.826;5.692;2023-03-31T04:21:37;13.85;;;2.10;;
41925;SDS011;27615;51.826;5.692;2023-03-31T04:24:09;9.88;;;2.45;;
41925;SDS011;27615;51.826;5.692;2023-03-31T04:26:40;11.25;;;1.83;;
41925;SDS011;27615;51.826;5.692;2023-03-31T04:29:13;14.75;;;2.63;;
41925;SDS011;27615;51.826;5.692;2023-03-31T04:31:44;12.52;;;2.28;;
41925;SDS011;27615;51.826;5.692;2023-03-31T04:34:11;8.02;;;1.80;;
41925;SDS011;27615;51.826;5.692;2023-03-31T04:36:39;18.40;;;3.22;;
41925;SDS011;27615;51.826;5.692;2023-03-31T04:39:11;11.15;;;2.22;;
41925;SDS011;27615;51.826;5.692;2023-03-31T04:41:37;12.05;;;2.95;;
41925;SDS011;27615;51.826;5.692;2023-03-31T04:44:03;13.73;;;2.60;;
41925;SDS011;27615;51.826;5.692;2023-03-31T04:46:28;10.65;;;2.67;;
41925;SDS011;27615;51.826;5.692;2023-03-31T04:48:54;16.27;;;2.35;;
41925;SDS011;27615;51.826;5.692;2023-03-31T04:51:21;14.60;;;2.45;;
41925;SDS011;27615;51.826;5.692;2023-03-31T04:53:46;14.27;;;2.80;;
41925;SDS011;27615;51.826;5.692;2023-03-31T04:56:12;11.43;;;2.00;;
41925;SDS011;27615;51.826;5.692;2023-03-31T04:58:37;11.35;;;2.65;;
41925;SDS011;27615;51.826;5.692;2023-03-31T05:01:03;17.10;;;2.92;;
41925;SDS011;27615;51.826;5.692;2023-03-31T05:03:31;15.98;;;3.15;;
41925;SDS011;27615;51.826;5.692;2023-03-31T05:05:57;10.60;;;2.05;;
41925;SDS011;27615;51.826;5.692;2023-03-31T05:08:23;12.60;;;3.03;;
41925;SDS011;27615;51.826;5.692;2023-03-31T05:10:51;11.38;;;1.73;;
41925;SDS011;27615;51.826;5.692;2023-03-31T05:13:16;11.23;;;2.00;;
41925;SDS011;27615;51.826;5.692;2023-03-31T05:15:42;13.52;;;2.22;;
41925;SDS011;27615;51.826;5.692;2023-03-31T05:18:09;8.43;;;1.50;;
41925;SDS011;27615;51.826;5.692;2023-03-31T05:20:35;11.10;;;2.03;;
41925;SDS011;27615;51.826;5.692;2023-03-31T05:23:01;13.65;;;2.03;;
41925;SDS011;27615;51.826;5.692;2023-03-31T05:25:26;8.68;;;1.88;;
41925;SDS011;27615;51.826;5.692;2023-03-31T05:27:56;8.85;;;2.15;;
41925;SDS011;27615;51.826;5.692;2023-03-31T05:30:23;15.50;;;2.40;;
41925;SDS011;27615;51.826;5.692;2023-03-31T05:32:50;7.95;;;2.15;;
41925;SDS011;27615;51.826;5.692;2023-03-31T05:35:16;10.20;;;2.25;;
41925;SDS011;27615;51.826;5.692;2023-03-31T05:37:42;12.52;;;2.35;;
41925;SDS011;27615;51.826;5.692;2023-03-31T05:40:07;13.00;;;1.95;;
41925;SDS011;27615;51.826;5.692;2023-03-31T05:42:34;11.80;;;1.80;;
41925;SDS011;27615;51.826;5.692;2023-03-31T05:45:00;9.68;;;1.88;;
41925;SDS011;27615;51.826;5.692;2023-03-31T05:47:26;11.27;;;1.80;;
41925;SDS011;27615;51.826;5.692;2023-03-31T05:49:51;9.63;;;2.00;;
41925;SDS011;27615;51.826;5.692;2023-03-31T05:52:17;9.13;;;1.70;;
41925;SDS011;27615;51.826;5.692;2023-03-31T05:54:43;9.07;;;1.77;;
41925;SDS011;27615;51.826;5.692;2023-03-31T05:57:08;9.55;;;1.52;;
41925;SDS011;27615;51.826;5.692;2023-03-31T05:59:34;11.48;;;2.30;;
41925;SDS011;27615;51.826;5.692;2023-03-31T06:02:01;10.35;;;1.65;;
41925;SDS011;27615;51.826;5.692;2023-03-31T06:04:27;9.43;;;2.10;;
41925;SDS011;27615;51.826;5.692;2023-03-31T06:06:52;9.80;;;1.98;;
41925;SDS011;27615;51.826;5.692;2023-03-31T06:09:20;9.20;;;1.35;;
41925;SDS011;27615;51.826;5.692;2023-03-31T06:11:45;6.68;;;1.00;;
41925;SDS011;27615;51.826;5.692;2023-03-31T06:14:11;7.40;;;1.05;;
41925;SDS011;27615;51.826;5.692;2023-03-31T06:16:37;4.70;;;0.90;;
41925;SDS011;27615;51.826;5.692;2023-03-31T06:19:03;5.88;;;1.05;;
41925;SDS011;27615;51.826;5.692;2023-03-31T06:21:28;5.03;;;1.27;;
41925;SDS011;27615;51.826;5.692;2023-03-31T06:23:54;5.82;;;1.10;;
41925;SDS011;27615;51.826;5.692;2023-03-31T06:26:22;5.32;;;0.80;;
41925;SDS011;27615;51.826;5.692;2023-03-31T06:28:48;6.88;;;0.90;;
41925;SDS011;27615;51.826;5.692;2023-03-31T06:31:14;2.42;;;0.60;;
41925;SDS011;27615;51.826;5.692;2023-03-31T06:33:42;5.07;;;1.27;;
41925;SDS011;27615;51.826;5.692;2023-03-31T06:36:09;4.55;;;0.90;;
41925;SDS011;27615;51.826;5.692;2023-03-31T06:38:36;6.43;;;0.90;;
41925;SDS011;27615;51.826;5.692;2023-03-31T06:41:02;6.50;;;1.23;;
41925;SDS011;27615;51.826;5.692;2023-03-31T06:43:28;3.55;;;0.77;;
41925;SDS011;27615;51.826;5.692;2023-03-31T06:45:54;5.40;;;1.27;;
41925;SDS011;27615;51.826;5.692;2023-03-31T06:48:21;5.07;;;0.82;;
41925;SDS011;27615;51.826;5.692;2023-03-31T06:50:47;11.15;;;1.90;;
41925;SDS011;27615;51.826;5.692;2023-03-31T06:53:12;4.45;;;0.80;;
41925;SDS011;27615;51.826;5.692;2023-03-31T06:55:38;3.45;;;0.80;;
41925;SDS011;27615;51.826;5.692;2023-03-31T06:58:04;3.78;;;0.85;;
41925;SDS011;27615;51.826;5.692;2023-03-31T07:00:29;5.63;;;1.55;;
41925;SDS011;27615;51.826;5.692;2023-03-31T07:02:56;8.45;;;1.85;;
41925;SDS011;27615;51.826;5.692;2023-03-31T07:05:22;5.22;;;1.30;;
41925;SDS011;27615;51.826;5.692;2023-03-31T07:07:52;7.18;;;1.05;;
41925;SDS011;27615;51.826;5.692;2023-03-31T07:10:19;7.00;;;1.42;;
41925;SDS011;27615;51.826;5.692;2023-03-31T07:12:45;7.65;;;1.10;;
41925;SDS011;27615;51.826;5.692;2023-03-31T07:15:10;3.88;;;0.90;;
41925;SDS011;27615;51.826;5.692;2023-03-31T07:17:36;5.28;;;1.27;;
41925;SDS011;27615;51.826;5.692;2023-03-31T07:20:05;4.18;;;1.13;;
41925;SDS011;27615;51.826;5.692;2023-03-31T07:22:50;7.30;;;1.33;;
41925;SDS011;27615;51.826;5.692;2023-03-31T07:25:16;7.57;;;1.27;;
41925;SDS011;27615;51.826;5.692;2023-03-31T07:27:42;6.97;;;1.10;;
41925;SDS011;27615;51.826;5.692;2023-03-31T07:30:10;3.75;;;0.88;;
41925;SDS011;27615;51.826;5.692;2023-03-31T07:32:40;7.18;;;1.30;;
41925;SDS011;27615;51.826;5.692;2023-03-31T07:35:06;5.20;;;0.90;;
41925;SDS011;27615;51.826;5.692;2023-03-31T07:37:37;6.45;;;1.20;;
41925;SDS011;27615;51.826;5.692;2023-03-31T07:40:04;7.50;;;1.00;;
41925;SDS011;27615;51.826;5.692;2023-03-31T07:42:31;6.88;;;1.02;;
41925;SDS011;27615;51.826;5.692;2023-03-31T07:44:57;7.38;;;0.88;;
41925;SDS011;27615;51.826;5.692;2023-03-31T07:47:23;5.53;;;0.85;;
41925;SDS011;27615;51.826;5.692;2023-03-31T07:49:49;5.47;;;1.10;;
41925;SDS011;27615;51.826;5.692;2023-03-31T07:52:14;3.08;;;0.80;;
41925;SDS011;27615;51.826;5.692;2023-03-31T07:54:41;7.18;;;1.08;;
41925;SDS011;27615;51.826;5.692;2023-03-31T07:57:07;3.95;;;1.23;;
41925;SDS011;27615;51.826;5.692;2023-03-31T07:59:34;5.93;;;1.10;;
41925;SDS011;27615;51.826;5.692;2023-03-31T08:01:59;4.50;;;1.08;;
41925;SDS011;27615;51.826;5.692;2023-03-31T08:04:25;7.70;;;1.40;;
41925;SDS011;27615;51.826;5.692;2023-03-31T08:06:51;9.07;;;1.30;;
41925;SDS011;27615;51.826;5.692;2023-03-31T08:09:17;6.10;;;1.33;;
41925;SDS011;27615;51.826;5.692;2023-03-31T08:11:43;5.90;;;1.40;;
41925;SDS011;27615;51.826;5.692;2023-03-31T08:14:09;11.95;;;1.77;;
41925;SDS011;27615;51.826;5.692;2023-03-31T08:16:35;7.72;;;1.63;;
41925;SDS011;27615;51.826;5.692;2023-03-31T08:19:00;8.80;;;1.92;;
41925;SDS011;27615;51.826;5.692;2023-03-31T08:21:29;8.38;;;1.65;;
41925;SDS011;27615;51.826;5.692;2023-03-31T08:23:55;9.83;;;2.53;;
41925;SDS011;27615;51.826;5.692;2023-03-31T08:26:21;6.82;;;1.83;;
41925;SDS011;27615;51.826;5.692;2023-03-31T08:28:49;14.45;;;2.55;;
41925;SDS011;27615;51.826;5.692;2023-03-31T08:31:16;14.13;;;2.78;;
41925;SDS011;27615;51.826;5.692;2023-03-31T08:33:43;11.15;;;2.22;;
41925;SDS011;27615;51.826;5.692;2023-03-31T08:36:09;9.52;;;2.42;;
41925;SDS011;27615;51.826;5.692;2023-03-31T08:38:36;11.20;;;2.72;;
41925;SDS011;27615;51.826;5.692;2023-03-31T08:41:04;10.52;;;2.03;;
41925;SDS011;27615;51.826;5.692;2023-03-31T08:43:32;11.75;;;2.35;;
41925;SDS011;27615;51.826;5.692;2023-03-31T08:46:11;12.65;;;2.45;;
41925;SDS011;27615;51.826;5.692;2023-03-31T08:48:44;11.73;;;2.92;;
41925;SDS011;27615;51.826;5.692;2023-03-31T08:51:15;11.13;;;2.67;;
41925;SDS011;27615;51.826;5.692;2023-03-31T08:54:04;15.40;;;3.38;;
41925;SDS011;27615;51.826;5.692;2023-03-31T08:56:35;7.63;;;1.77;;
41925;SDS011;27615;51.826;5.692;2023-03-31T08:59:05;10.15;;;2.05;;
41925;SDS011;27615;51.826;5.692;2023-03-31T09:04:18;14.02;;;2.70;;
41925;SDS011;27615;51.826;5.692;2023-03-31T09:06:50;15.18;;;3.05;;
41925;SDS011;27615;51.826;5.692;2023-03-31T09:12:10;16.00;;;2.75;;
41925;SDS011;27615;51.826;5.692;2023-03-31T09:14:41;16.67;;;4.05;;
41925;SDS011;27615;51.826;5.692;2023-03-31T09:17:24;13.50;;;2.65;;
41925;SDS011;27615;51.826;5.692;2023-03-31T09:22:42;19.98;;;2.92;;
41925;SDS011;27615;51.826;5.692;2023-03-31T09:25:17;17.38;;;3.00;;
41925;SDS011;27615;51.826;5.692;2023-03-31T09:27:47;13.70;;;3.00;;
41925;SDS011;27615;51.826;5.692;2023-03-31T09:32:53;15.30;;;3.33;;
41925;SDS011;27615;51.826;5.692;2023-03-31T09:35:37;18.52;;;3.63;;
41925;SDS011;27615;51.826;5.692;2023-03-31T09:38:03;12.07;;;2.78;;
41925;SDS011;27615;51.826;5.692;2023-03-31T09:40:29;6.50;;;2.30;;
41925;SDS011;27615;51.826;5.692;2023-03-31T09:43:18;13.13;;;3.13;;
41925;SDS011;27615;51.826;5.692;2023-03-31T09:45:46;17.02;;;3.05;;
41925;SDS011;27615;51.826;5.692;2023-03-31T09:48:17;15.88;;;3.05;;
41925;SDS011;27615;51.826;5.692;2023-03-31T09:50:48;12.18;;;2.75;;
41925;SDS011;27615;51.826;5.692;2023-03-31T09:56:10;13.27;;;3.00;;
41925;SDS011;27615;51.826;5.692;2023-03-31T09:58:43;17.40;;;3.40;;
41925;SDS011;27615;51.826;5.692;2023-03-31T10:01:11;14.45;;;2.80;;
41925;SDS011;27615;51.826;5.692;2023-03-31T10:03:43;11.85;;;2.38;;
41925;SDS011;27615;51.826;5.692;2023-03-31T10:06:16;13.70;;;2.55;;
41925;SDS011;27615;51.826;5.692;2023-03-31T10:08:46;15.07;;;3.45;;
41925;SDS011;27615;51.826;5.692;2023-03-31T10:11:17;12.27;;;2.60;;
41925;SDS011;27615;51.826;5.692;2023-03-31T10:14:00;17.13;;;2.85;;
41925;SDS011;27615;51.826;5.692;2023-03-31T10:21:44;9.95;;;2.22;;
41925;SDS011;27615;51.826;5.692;2023-03-31T10:24:10;13.02;;;2.28;;
41925;SDS011;27615;51.826;5.692;2023-03-31T10:26:36;12.57;;;2.67;;
41925;SDS011;27615;51.826;5.692;2023-03-31T10:29:09;14.50;;;2.78;;
41925;SDS011;27615;51.826;5.692;2023-03-31T10:31:37;12.35;;;2.30;;
41925;SDS011;27615;51.826;5.692;2023-03-31T10:34:06;11.43;;;3.00;;
41925;SDS011;27615;51.826;5.692;2023-03-31T10:36:36;11.02;;;2.38;;
41925;SDS011;27615;51.826;5.692;2023-03-31T10:39:04;13.15;;;2.70;;
41925;SDS011;27615;51.826;5.692;2023-03-31T10:41:31;9.65;;;2.50;;
41925;SDS011;27615;51.826;5.692;2023-03-31T10:43:57;15.10;;;2.40;;
41925;SDS011;27615;51.826;5.692;2023-03-31T10:49:26;9.60;;;2.15;;
41925;SDS011;27615;51.826;5.692;2023-03-31T10:51:55;9.13;;;2.03;;
41925;SDS011;27615;51.826;5.692;2023-03-31T10:54:23;11.48;;;2.20;;
41925;SDS011;27615;51.826;5.692;2023-03-31T10:56:55;13.07;;;1.90;;
41925;SDS011;27615;51.826;5.692;2023-03-31T10:59:47;14.05;;;2.28;;
41925;SDS011;27615;51.826;5.692;2023-03-31T11:02:43;9.75;;;2.15;;
41925;SDS011;27615;51.826;5.692;2023-03-31T11:05:18;14.10;;;2.00;;
41925;SDS011;27615;51.826;5.692;2023-03-31T11:13:43;12.18;;;1.90;;
41925;SDS011;27615;51.826;5.692;2023-03-31T11:16:35;9.18;;;1.90;;
41925;SDS011;27615;51.826;5.692;2023-03-31T11:22:17;7.55;;;1.50;;
41925;SDS011;27615;51.826;5.692;2023-03-31T11:30:30;11.77;;;2.60;;
41925;SDS011;27615;51.826;5.692;2023-03-31T11:38:56;12.18;;;3.03;;
41925;SDS011;27615;51.826;5.692;2023-03-31T11:44:13;8.23;;;1.77;;
41925;SDS011;27615;51.826;5.692;2023-03-31T11:49:19;11.95;;;2.30;;
41925;SDS011;27615;51.826;5.692;2023-03-31T11:51:56;9.95;;;1.98;;
41925;SDS011;27615;51.826;5.692;2023-03-31T11:54:28;9.25;;;2.00;;
41925;SDS011;27615;51.826;5.692;2023-03-31T11:59:56;12.68;;;2.13;;
41925;SDS011;27615;51.826;5.692;2023-03-31T12:02:43;9.02;;;2.15;;
41925;SDS011;27615;51.826;5.692;2023-03-31T12:05:29;13.90;;;3.00;;
41925;SDS011;27615;51.826;5.692;2023-03-31T12:07:59;12.82;;;2.45;;
41925;SDS011;27615;51.826;5.692;2023-03-31T12:10:47;15.48;;;2.97;;
41925;SDS011;27615;51.826;5.692;2023-03-31T12:16:37;12.50;;;2.28;;
41925;SDS011;27615;51.826;5.692;2023-03-31T12:19:10;11.68;;;2.72;;
41925;SDS011;27615;51.826;5.692;2023-03-31T12:21:39;16.88;;;2.53;;
41925;SDS011;27615;51.826;5.692;2023-03-31T12:24:11;16.60;;;3.45;;
41925;SDS011;27615;51.826;5.692;2023-03-31T12:29:19;13.82;;;2.70;;
41925;SDS011;27615;51.826;5.692;2023-03-31T12:31:56;8.35;;;1.88;;
41925;SDS011;27615;51.826;5.692;2023-03-31T12:47:58;8.85;;;1.70;;
41925;SDS011;27615;51.826;5.692;2023-03-31T12:56:21;7.72;;;1.83;;
41925;SDS011;27615;51.826;5.692;2023-03-31T12:58:47;8.77;;;1.20;;
41925;SDS011;27615;51.826;5.692;2023-03-31T13:01:22;8.88;;;1.52;;
41925;SDS011;27615;51.826;5.692;2023-03-31T13:03:49;9.18;;;1.58;;
41925;SDS011;27615;51.826;5.692;2023-03-31T13:11:17;4.55;;;1.15;;
41925;SDS011;27615;51.826;5.692;2023-03-31T13:13:59;6.32;;;1.30;;
41925;SDS011;27615;51.826;5.692;2023-03-31T13:16:27;6.20;;;1.23;;
41925;SDS011;27615;51.826;5.692;2023-03-31T13:18:59;9.60;;;1.75;;
41925;SDS011;27615;51.826;5.692;2023-03-31T13:21:25;6.97;;;1.42;;
41925;SDS011;27615;51.826;5.692;2023-03-31T13:23:51;8.23;;;1.70;;
41925;SDS011;27615;51.826;5.692;2023-03-31T13:26:39;13.25;;;1.75;;
41925;SDS011;27615;51.826;5.692;2023-03-31T13:29:08;10.48;;;1.90;;
41925;SDS011;27615;51.826;5.692;2023-03-31T13:34:24;8.18;;;1.40;;
41925;SDS011;27615;51.826;5.692;2023-03-31T13:39:51;15.32;;;2.10;;
41925;SDS011;27615;51.826;5.692;2023-03-31T13:42:40;9.23;;;2.13;;
41925;SDS011;27615;51.826;5.692;2023-03-31T13:47:56;10.48;;;1.92;;
41925;SDS011;27615;51.826;5.692;2023-03-31T13:53:24;8.95;;;1.52;;
41925;SDS011;27615;51.826;5.692;2023-03-31T13:55:55;9.50;;;1.88;;
41925;SDS011;27615;51.826;5.692;2023-03-31T14:04:26;8.98;;;1.10;;
41925;SDS011;27615;51.826;5.692;2023-03-31T14:07:16;6.35;;;1.25;;
41925;SDS011;27615;51.826;5.692;2023-03-31T14:09:43;5.82;;;1.05;;
41925;SDS011;27615;51.826;5.692;2023-03-31T14:12:21;3.33;;;0.80;;
41925;SDS011;27615;51.826;5.692;2023-03-31T14:14:56;10.32;;;1.92;;
41925;SDS011;27615;51.826;5.692;2023-03-31T14:17:23;5.95;;;1.10;;
41925;SDS011;27615;51.826;5.692;2023-03-31T14:26:04;5.82;;;1.10;;
41925;SDS011;27615;51.826;5.692;2023-03-31T14:28:47;4.57;;;0.82;;
41925;SDS011;27615;51.826;5.692;2023-03-31T14:31:28;6.45;;;1.02;;
41925;SDS011;27615;51.826;5.692;2023-03-31T14:37:05;4.30;;;0.85;;
41925;SDS011;27615;51.826;5.692;2023-03-31T14:39:37;6.53;;;1.20;;
41925;SDS011;27615;51.826;5.692;2023-03-31T14:42:12;5.80;;;1.23;;
41925;SDS011;27615;51.826;5.692;2023-03-31T14:44:42;6.80;;;1.30;;
41925;SDS011;27615;51.826;5.692;2023-03-31T14:47:22;6.22;;;1.10;;
41925;SDS011;27615;51.826;5.692;2023-03-31T14:52:39;8.93;;;1.25;;
41925;SDS011;27615;51.826;5.692;2023-03-31T14:55:17;4.82;;;1.08;;
41925;SDS011;27615;51.826;5.692;2023-03-31T14:57:47;5.22;;;0.88;;
41925;SDS011;27615;51.826;5.692;2023-03-31T15:00:15;5.25;;;1.00;;
41925;SDS011;27615;51.826;5.692;2023-03-31T15:02:48;5.32;;;0.98;;
41925;SDS011;27615;51.826;5.692;2023-03-31T15:08:00;4.80;;;0.90;;
41925;SDS011;27615;51.826;5.692;2023-03-31T15:10:30;4.03;;;0.80;;
41925;SDS011;27615;51.826;5.692;2023-03-31T15:13:01;7.60;;;1.17;;
41925;SDS011;27615;51.826;5.692;2023-03-31T15:15:31;4.95;;;1.00;;
41925;SDS011;27615;51.826;5.692;2023-03-31T15:17:57;4.88;;;0.85;;
41925;SDS011;27615;51.826;5.692;2023-03-31T15:20:28;3.72;;;0.70;;
41925;SDS011;27615;51.826;5.692;2023-03-31T15:22:56;4.93;;;1.00;;
41925;SDS011;27615;51.826;5.692;2023-03-31T15:25:24;3.40;;;0.93;;
41925;SDS011;27615;51.826;5.692;2023-03-31T15:28:01;5.32;;;0.80;;
41925;SDS011;27615;51.826;5.692;2023-03-31T15:30:30;4.60;;;0.80;;
41925;SDS011;27615;51.826;5.692;2023-03-31T15:32:56;5.75;;;0.75;;
41925;SDS011;27615;51.826;5.692;2023-03-31T15:35:24;5.03;;;0.80;;
41925;SDS011;27615;51.826;5.692;2023-03-31T15:37:55;4.10;;;0.70;;
41925;SDS011;27615;51.826;5.692;2023-03-31T15:40:23;4.47;;;0.65;;
41925;SDS011;27615;51.826;5.692;2023-03-31T15:42:55;3.78;;;0.65;;
41925;SDS011;27615;51.826;5.692;2023-03-31T15:48:24;4.65;;;0.90;;
41925;SDS011;27615;51.826;5.692;2023-03-31T15:50:58;3.55;;;0.70;;
41925;SDS011;27615;51.826;5.692;2023-03-31T15:53:44;4.50;;;0.77;;
41925;SDS011;27615;51.826;5.692;2023-03-31T15:56:27;2.53;;;0.55;;
41925;SDS011;27615;51.826;5.692;2023-03-31T16:01:31;1.55;;;0.40;;
41925;SDS011;27615;51.826;5.692;2023-03-31T16:04:05;2.22;;;0.40;;
41925;SDS011;27615;51.826;5.692;2023-03-31T16:11:41;2.05;;;0.30;;
41925;SDS011;27615;51.826;5.692;2023-03-31T16:14:12;0.85;;;0.25;;
41925;SDS011;27615;51.826;5.692;2023-03-31T16:16:45;1.17;;;0.30;;
41925;SDS011;27615;51.826;5.692;2023-03-31T16:19:13;1.58;;;0.30;;
41925;SDS011;27615;51.826;5.692;2023-03-31T16:21:40;1.25;;;0.50;;
41925;SDS011;27615;51.826;5.692;2023-03-31T16:24:11;1.58;;;0.32;;
41925;SDS011;27615;51.826;5.692;2023-03-31T16:26:38;2.10;;;0.25;;
41925;SDS011;27615;51.826;5.692;2023-03-31T16:29:04;2.03;;;0.30;;
41925;SDS011;27615;51.826;5.692;2023-03-31T16:31:34;0.70;;;0.28;;
41925;SDS011;27615;51.826;5.692;2023-03-31T16:34:05;3.38;;;0.47;;
41925;SDS011;27615;51.826;5.692;2023-03-31T16:36:32;2.88;;;0.40;;
41925;SDS011;27615;51.826;5.692;2023-03-31T16:38:58;1.75;;;0.40;;
41925;SDS011;27615;51.826;5.692;2023-03-31T16:41:24;2.15;;;0.40;;
41925;SDS011;27615;51.826;5.692;2023-03-31T16:43:52;0.93;;;0.50;;
41925;SDS011;27615;51.826;5.692;2023-03-31T16:46:19;2.15;;;0.60;;
41925;SDS011;27615;51.826;5.692;2023-03-31T16:48:45;1.42;;;0.40;;
41925;SDS011;27615;51.826;5.692;2023-03-31T16:51:11;3.15;;;0.63;;
41925;SDS011;27615;51.826;5.692;2023-03-31T16:53:37;2.60;;;0.77;;
41925;SDS011;27615;51.826;5.692;2023-03-31T16:56:03;1.33;;;0.40;;
41925;SDS011;27615;51.826;5.692;2023-03-31T16:58:34;1.45;;;0.30;;
41925;SDS011;27615;51.826;5.692;2023-03-31T17:01:01;2.00;;;0.50;;
41925;SDS011;27615;51.826;5.692;2023-03-31T17:03:28;0.80;;;0.30;;
41925;SDS011;27615;51.826;5.692;2023-03-31T17:05:55;1.98;;;0.30;;
41925;SDS011;27615;51.826;5.692;2023-03-31T17:08:22;0.77;;;0.43;;
41925;SDS011;27615;51.826;5.692;2023-03-31T17:10:53;2.25;;;0.50;;
41925;SDS011;27615;51.826;5.692;2023-03-31T17:13:31;2.92;;;0.50;;
41925;SDS011;27615;51.826;5.692;2023-03-31T17:15:57;0.88;;;0.30;;
41925;SDS011;27615;51.826;5.692;2023-03-31T17:18:24;2.67;;;0.60;;
41925;SDS011;27615;51.826;5.692;2023-03-31T17:20:51;3.00;;;0.40;;
41925;SDS011;27615;51.826;5.692;2023-03-31T17:23:17;1.42;;;0.43;;
41925;SDS011;27615;51.826;5.692;2023-03-31T17:25:47;2.15;;;0.40;;
41925;SDS011;27615;51.826;5.692;2023-03-31T17:28:14;2.95;;;0.65;;
41925;SDS011;27615;51.826;5.692;2023-03-31T17:30:40;2.00;;;0.32;;
41925;SDS011;27615;51.826;5.692;2023-03-31T17:33:08;2.72;;;0.50;;
41925;SDS011;27615;51.826;5.692;2023-03-31T17:35:35;2.05;;;0.40;;
41925;SDS011;27615;51.826;5.692;2023-03-31T17:38:01;1.45;;;0.40;;
41925;SDS011;27615;51.826;5.692;2023-03-31T17:40:28;2.40;;;0.38;;
41925;SDS011;27615;51.826;5.692;2023-03-31T17:42:57;4.68;;;0.55;;
41925;SDS011;27615;51.826;5.692;2023-03-31T17:45:23;2.60;;;0.60;;